createdAt,value
2017-06-13T00:00:03.052Z,10.79
2017-06-13T00:01:03.060Z,10.69
2017-06-13T00:02:03.036Z,10.66
2017-06-13T00:03:03.751Z,10.65
2017-06-13T00:04:03.043Z,10.69
2017-06-13T00:05:04.188Z,10.67
2017-06-13T00:06:03.012Z,10.63
2017-06-13T00:07:03.023Z,10.63
2017-06-13T00:08:02.993Z,10.67
2017-06-13T00:09:03.359Z,10.61
2017-06-13T00:10:03.738Z,10.59
2017-06-13T00:11:03.843Z,10.65
2017-06-13T00:12:02.960Z,10.67
2017-06-13T00:13:03.326Z,10.59
2017-06-13T00:14:02.950Z,10.61
2017-06-13T00:15:04.098Z,10.65
2017-06-13T00:16:02.611Z,10.59
2017-06-13T00:17:03.248Z,10.61
2017-06-13T00:18:02.936Z,10.59
2017-06-13T00:19:03.570Z,10.61
2017-06-13T00:20:03.582Z,10.55
2017-06-13T00:21:03.293Z,10.57
2017-06-13T00:22:03.212Z,10.57
2017-06-13T00:23:03.210Z,10.49
2017-06-13T00:24:03.500Z,10.55
2017-06-13T00:25:02.961Z,10.54
2017-06-13T00:26:03.195Z,10.46
2017-06-13T00:27:03.174Z,10.42
2017-06-13T00:28:03.410Z,10.52
2017-06-13T00:29:02.948Z,10.46
2017-06-13T00:30:02.829Z,10.44
2017-06-13T00:31:02.835Z,10.44
2017-06-13T00:32:02.827Z,10.42
2017-06-13T00:33:02.992Z,10.46
2017-06-13T00:34:03.577Z,10.42
2017-06-13T00:35:03.220Z,10.46
2017-06-13T00:36:02.832Z,10.42
2017-06-13T00:37:04.222Z,10.35
2017-06-13T00:38:03.511Z,10.41
2017-06-13T00:39:03.255Z,10.33
2017-06-13T00:40:02.757Z,10.33
2017-06-13T00:41:02.746Z,10.32
2017-06-13T00:42:03.096Z,10.28
2017-06-13T00:43:03.053Z,10.31
2017-06-13T00:44:03.558Z,10.28
2017-06-13T00:45:02.881Z,10.26
2017-06-13T00:46:02.782Z,10.32
2017-06-13T00:47:02.700Z,10.26
2017-06-13T00:48:02.735Z,10.28
2017-06-13T00:49:03.006Z,10.17
2017-06-13T00:50:03.633Z,10.31
2017-06-13T00:51:02.670Z,10.29
2017-06-13T00:52:02.676Z,10.13
2017-06-13T00:53:03.367Z,10.17
2017-06-13T00:54:03.425Z,10.29
2017-06-13T00:55:02.639Z,10.2
2017-06-13T00:56:02.952Z,10.15
2017-06-13T00:57:02.945Z,10.15
2017-06-13T00:58:02.933Z,10.13
2017-06-13T00:59:02.606Z,10.15
2017-06-13T01:00:02.617Z,10.11
2017-06-13T01:01:02.589Z,10.03
2017-06-13T01:02:02.584Z,10.03
2017-06-13T01:03:03.715Z,10.07
2017-06-13T01:04:03.832Z,10.02
2017-06-13T01:05:02.943Z,10.08
2017-06-13T01:06:02.557Z,10.07
2017-06-13T01:07:02.866Z,10.05
2017-06-13T01:08:02.539Z,10.08
2017-06-13T01:09:03.459Z,10.05
2017-06-13T01:10:03.330Z,10.07
2017-06-13T01:11:02.525Z,10.11
2017-06-13T01:12:02.550Z,10.03
2017-06-13T01:13:02.822Z,10.03
2017-06-13T01:14:02.538Z,9.98
2017-06-13T01:15:02.480Z,10.03
2017-06-13T01:16:02.471Z,9.99
2017-06-13T01:17:02.472Z,9.98
2017-06-13T01:18:03.141Z,10.02
2017-06-13T01:19:03.700Z,10.1
2017-06-13T01:20:02.790Z,10.13
2017-06-13T01:21:02.428Z,10.08
2017-06-13T01:22:02.425Z,9.98
2017-06-13T01:23:03.093Z,10.13
2017-06-13T01:24:04.265Z,9.99
2017-06-13T01:25:02.400Z,10.03
2017-06-13T01:26:02.406Z,10.08
2017-06-13T01:27:02.062Z,10.03
2017-06-13T01:28:02.055Z,9.99
2017-06-13T01:29:02.049Z,10.08
2017-06-13T01:30:03.126Z,10.15
2017-06-13T01:31:02.678Z,10.08
2017-06-13T01:32:02.679Z,10.13
2017-06-13T01:33:02.337Z,10.14
2017-06-13T01:34:02.675Z,10.15
2017-06-13T01:35:02.640Z,10.14
2017-06-13T01:36:02.635Z,10.18
2017-06-13T01:37:02.607Z,10.15
2017-06-13T01:38:03.401Z,10.17
2017-06-13T01:39:03.045Z,10.11
2017-06-13T01:40:02.604Z,10.13
2017-06-13T01:41:02.595Z,9.99
2017-06-13T01:42:02.258Z,10.03
2017-06-13T01:43:02.587Z,10.05
2017-06-13T01:44:02.566Z,10.03
2017-06-13T01:45:02.560Z,10.02
2017-06-13T01:46:02.554Z,10.02
2017-06-13T01:47:02.224Z,10.05
2017-06-13T01:48:02.215Z,10.03
2017-06-13T01:49:03.056Z,9.98
2017-06-13T01:50:03.075Z,9.9
2017-06-13T01:51:02.513Z,9.92
2017-06-13T01:52:02.184Z,9.92
2017-06-13T01:53:02.172Z,9.96
2017-06-13T01:54:02.487Z,9.96
2017-06-13T01:55:02.156Z,9.93
2017-06-13T01:56:03.181Z,9.9
2017-06-13T01:57:03.315Z,9.84
2017-06-13T01:58:02.231Z,9.89
2017-06-13T01:59:02.447Z,9.82
2017-06-13T02:00:02.442Z,9.78
2017-06-13T02:01:02.165Z,9.78
2017-06-13T02:02:02.427Z,9.82
2017-06-13T02:03:02.424Z,9.81
2017-06-13T02:04:02.731Z,9.78
2017-06-13T02:05:02.924Z,9.81
2017-06-13T02:06:02.587Z,9.81
2017-06-13T02:07:02.395Z,9.75
2017-06-13T02:08:02.374Z,9.75
2017-06-13T02:09:02.045Z,9.81
2017-06-13T02:10:02.361Z,9.82
2017-06-13T02:11:02.577Z,9.89
2017-06-13T02:12:02.583Z,9.95
2017-06-13T02:13:02.100Z,9.92
2017-06-13T02:14:02.324Z,10.03
2017-06-13T02:15:01.993Z,10.08
2017-06-13T02:16:01.998Z,10.11
2017-06-13T02:17:01.977Z,10.11
2017-06-13T02:18:02.292Z,10.13
2017-06-13T02:19:02.288Z,10.26
2017-06-13T02:20:02.142Z,10.28
2017-06-13T02:21:02.103Z,10.39
2017-06-13T02:22:01.937Z,10.47
2017-06-13T02:23:01.930Z,10.51
2017-06-13T02:24:01.920Z,10.51
2017-06-13T02:25:02.036Z,10.63
2017-06-13T02:26:02.227Z,10.72
2017-06-13T02:27:01.913Z,10.69
2017-06-13T02:28:01.890Z,10.77
2017-06-13T02:29:01.880Z,10.9
2017-06-13T02:30:01.571Z,11
2017-06-13T02:31:01.867Z,11.05
2017-06-13T02:32:01.864Z,10.98
2017-06-13T02:33:01.851Z,11.1
2017-06-13T02:34:01.846Z,11.15
2017-06-13T02:35:01.831Z,11.09
2017-06-13T02:36:02.146Z,11.27
2017-06-13T02:37:01.819Z,11.26
2017-06-13T02:38:01.487Z,11.3
2017-06-13T02:39:01.800Z,11.35
2017-06-13T02:40:02.119Z,11.41
2017-06-13T02:41:01.467Z,11.42
2017-06-13T02:42:01.780Z,11.59
2017-06-13T02:43:01.769Z,11.57
2017-06-13T02:44:01.770Z,11.53
2017-06-13T02:45:01.450Z,11.57
2017-06-13T02:46:01.749Z,11.61
2017-06-13T02:47:01.743Z,11.57
2017-06-13T02:48:01.733Z,11.64
2017-06-13T02:49:01.725Z,11.66
2017-06-13T02:50:01.717Z,11.66
2017-06-13T02:51:01.387Z,11.67
2017-06-13T02:52:02.024Z,11.63
2017-06-13T02:53:01.695Z,11.68
2017-06-13T02:54:01.451Z,11.67
2017-06-13T02:55:01.686Z,11.68
2017-06-13T02:56:01.999Z,11.66
2017-06-13T02:57:01.990Z,11.64
2017-06-13T02:58:02.013Z,11.67
2017-06-13T02:59:01.660Z,11.71
2017-06-13T03:00:01.645Z,11.66
2017-06-13T03:01:01.316Z,11.61
2017-06-13T03:02:01.632Z,11.59
2017-06-13T03:03:01.950Z,11.67
2017-06-13T03:04:01.627Z,11.6
2017-06-13T03:05:01.932Z,11.59
2017-06-13T03:06:01.924Z,11.6
2017-06-13T03:07:01.919Z,11.53
2017-06-13T03:08:01.590Z,11.49
2017-06-13T03:09:01.944Z,11.45
2017-06-13T03:10:01.899Z,11.49
2017-06-13T03:11:01.247Z,11.46
2017-06-13T03:12:01.879Z,11.39
2017-06-13T03:13:01.556Z,11.43
2017-06-13T03:14:01.564Z,11.46
2017-06-13T03:15:01.252Z,11.45
2017-06-13T03:16:01.583Z,11.46
2017-06-13T03:17:01.545Z,11.46
2017-06-13T03:18:01.515Z,11.6
2017-06-13T03:19:01.521Z,11.46
2017-06-13T03:20:01.501Z,11.49
2017-06-13T03:21:01.176Z,11.53
2017-06-13T03:22:01.171Z,11.63
2017-06-13T03:23:01.161Z,11.59
2017-06-13T03:24:01.476Z,11.53
2017-06-13T03:25:01.472Z,11.57
2017-06-13T03:26:01.785Z,11.61
2017-06-13T03:27:01.460Z,11.63
2017-06-13T03:28:01.453Z,11.66
2017-06-13T03:29:01.478Z,11.64
2017-06-13T03:30:01.756Z,11.66
2017-06-13T03:31:01.763Z,11.66
2017-06-13T03:32:01.098Z,11.75
2017-06-13T03:33:01.441Z,11.78
2017-06-13T03:34:01.405Z,11.85
2017-06-13T03:35:01.410Z,11.79
2017-06-13T03:36:01.396Z,11.85
2017-06-13T03:37:01.394Z,11.91
2017-06-13T03:38:01.376Z,11.91
2017-06-13T03:39:01.050Z,11.91
2017-06-13T03:40:01.690Z,11.95
2017-06-13T03:41:01.358Z,12.03
2017-06-13T03:42:01.351Z,12.03
2017-06-13T03:43:01.022Z,12.01
2017-06-13T03:44:01.340Z,12
2017-06-13T03:45:01.334Z,12.04
2017-06-13T03:46:01.325Z,12.01
2017-06-13T03:47:01.641Z,12.01
2017-06-13T03:48:01.312Z,12.07
2017-06-13T03:49:01.317Z,12.1
2017-06-13T03:50:01.294Z,12.11
2017-06-13T03:51:01.612Z,12.15
2017-06-13T03:52:01.607Z,12.16
2017-06-13T03:53:01.596Z,12.2
2017-06-13T03:54:01.292Z,12.2
2017-06-13T03:55:01.591Z,12.22
2017-06-13T03:56:01.587Z,12.2
2017-06-13T03:57:01.585Z,12.22
2017-06-13T03:58:01.581Z,12.37
2017-06-13T03:59:01.237Z,12.33
2017-06-13T04:00:00.938Z,12.33
2017-06-13T04:01:01.223Z,12.29
2017-06-13T04:02:01.218Z,12.37
2017-06-13T04:03:01.209Z,12.43
2017-06-13T04:04:01.253Z,12.45
2017-06-13T04:05:01.196Z,12.4
2017-06-13T04:06:01.189Z,12.44
2017-06-13T04:07:01.184Z,12.4
2017-06-13T04:08:01.514Z,12.43
2017-06-13T04:09:00.852Z,12.48
2017-06-13T04:10:01.513Z,12.56
2017-06-13T04:11:00.853Z,12.65
2017-06-13T04:12:01.493Z,12.58
2017-06-13T04:13:01.146Z,12.58
2017-06-13T04:14:01.140Z,12.62
2017-06-13T04:15:01.134Z,12.63
2017-06-13T04:16:01.125Z,12.66
2017-06-13T04:17:01.444Z,12.71
2017-06-13T04:18:01.448Z,12.73
2017-06-13T04:19:00.786Z,12.77
2017-06-13T04:20:01.447Z,12.81
2017-06-13T04:21:01.102Z,12.91
2017-06-13T04:22:01.086Z,12.83
2017-06-13T04:23:01.087Z,12.91
2017-06-13T04:24:00.752Z,12.89
2017-06-13T04:25:01.392Z,12.88
2017-06-13T04:26:01.060Z,12.86
2017-06-13T04:27:01.058Z,12.94
2017-06-13T04:28:01.072Z,12.96
2017-06-13T04:29:01.045Z,12.91
2017-06-13T04:30:01.036Z,13.06
2017-06-13T04:31:01.353Z,13.09
2017-06-13T04:32:01.024Z,13.1
2017-06-13T04:33:01.038Z,13.16
2017-06-13T04:34:01.352Z,13.21
2017-06-13T04:35:01.340Z,13.28
2017-06-13T04:36:01.020Z,13.21
2017-06-13T04:37:01.315Z,13.24
2017-06-13T04:38:01.010Z,13.28
2017-06-13T04:39:01.005Z,13.29
2017-06-13T04:40:00.986Z,13.31
2017-06-13T04:41:01.292Z,13.37
2017-06-13T04:42:00.969Z,13.47
2017-06-13T04:43:01.304Z,13.51
2017-06-13T04:44:00.953Z,13.48
2017-06-13T04:45:01.270Z,13.6
2017-06-13T04:46:00.944Z,13.6
2017-06-13T04:47:01.258Z,13.72
2017-06-13T04:48:01.265Z,13.7
2017-06-13T04:49:01.280Z,13.83
2017-06-13T04:50:01.251Z,13.87
2017-06-13T04:51:01.235Z,13.9
2017-06-13T04:52:01.232Z,14.01
2017-06-13T04:53:01.225Z,13.94
2017-06-13T04:54:00.893Z,14.01
2017-06-13T04:55:01.215Z,13.97
2017-06-13T04:56:00.882Z,14.05
2017-06-13T04:57:00.877Z,14.08
2017-06-13T04:58:00.872Z,14.03
2017-06-13T04:59:00.865Z,13.97
2017-06-13T05:00:00.876Z,13.94
2017-06-13T05:01:00.857Z,13.97
2017-06-13T05:02:01.198Z,13.91
2017-06-13T05:03:00.854Z,13.95
2017-06-13T05:04:00.849Z,14.05
2017-06-13T05:05:01.157Z,14.02
2017-06-13T05:06:01.169Z,14.09
2017-06-13T05:07:00.824Z,14.13
2017-06-13T05:08:00.820Z,14.2
2017-06-13T05:09:00.822Z,14.24
2017-06-13T05:10:00.806Z,14.36
2017-06-13T05:11:01.125Z,14.41
2017-06-13T05:12:00.802Z,14.44
2017-06-13T05:13:00.795Z,14.46
2017-06-13T05:14:01.111Z,14.51
2017-06-13T05:15:00.785Z,14.48
2017-06-13T05:16:00.778Z,14.7
2017-06-13T05:17:00.776Z,14.7
2017-06-13T05:18:00.769Z,14.82
2017-06-13T05:19:01.084Z,14.86
2017-06-13T05:20:00.452Z,14.98
2017-06-13T05:21:01.075Z,14.95
2017-06-13T05:22:01.072Z,15
2017-06-13T05:23:00.751Z,15.1
2017-06-13T05:24:00.735Z,15.13
2017-06-13T05:25:01.057Z,15.22
2017-06-13T05:26:00.729Z,15.25
2017-06-13T05:27:01.048Z,15.19
2017-06-13T05:28:00.723Z,15.23
2017-06-13T05:29:00.719Z,15.22
2017-06-13T05:30:00.716Z,15.15
2017-06-13T05:31:00.709Z,15.08
2017-06-13T05:32:00.702Z,15.12
2017-06-13T05:33:01.019Z,15.02
2017-06-13T05:34:01.042Z,15.13
2017-06-13T05:35:00.369Z,15.07
2017-06-13T05:36:01.026Z,15.08
2017-06-13T05:37:00.686Z,15.13
2017-06-13T05:38:00.695Z,15.16
2017-06-13T05:39:00.670Z,15.26
2017-06-13T05:40:00.990Z,15.25
2017-06-13T05:41:00.668Z,15.3
2017-06-13T05:42:00.983Z,15.45
2017-06-13T05:43:00.658Z,15.38
2017-06-13T05:44:00.977Z,15.41
2017-06-13T05:45:00.971Z,15.38
2017-06-13T05:46:00.963Z,15.31
2017-06-13T05:47:00.637Z,15.25
2017-06-13T05:48:00.310Z,15.27
2017-06-13T05:49:00.634Z,15.31
2017-06-13T05:50:00.947Z,15.38
2017-06-13T05:51:00.943Z,15.41
2017-06-13T05:52:00.639Z,15.55
2017-06-13T05:53:00.934Z,15.62
2017-06-13T05:54:00.622Z,15.63
2017-06-13T05:55:00.617Z,15.62
2017-06-13T05:56:00.610Z,15.73
2017-06-13T05:57:00.598Z,15.7
2017-06-13T05:58:00.940Z,15.62
2017-06-13T05:59:00.929Z,15.6
2017-06-13T06:00:00.583Z,15.58
2017-06-13T06:01:00.903Z,15.56
2017-06-13T06:02:00.904Z,15.62
2017-06-13T06:03:00.891Z,15.47
2017-06-13T06:04:00.912Z,15.52
2017-06-13T06:05:00.900Z,15.53
2017-06-13T06:06:00.560Z,15.47
2017-06-13T06:07:00.882Z,15.52
2017-06-13T06:08:00.895Z,15.59
2017-06-13T06:09:00.882Z,15.47
2017-06-13T06:10:00.870Z,15.67
2017-06-13T06:11:00.234Z,15.6
2017-06-13T06:12:00.862Z,15.74
2017-06-13T06:13:00.533Z,15.74
2017-06-13T06:14:00.557Z,15.81
2017-06-13T06:15:00.533Z,15.89
2017-06-13T06:16:00.521Z,15.84
2017-06-13T06:17:00.844Z,15.99
2017-06-13T06:18:00.838Z,15.89
2017-06-13T06:19:00.517Z,15.89
2017-06-13T06:20:00.829Z,15.99
2017-06-13T06:21:00.180Z,15.98
2017-06-13T06:22:00.505Z,15.89
2017-06-13T06:23:00.820Z,15.91
2017-06-13T06:24:00.495Z,15.84
2017-06-13T06:25:00.489Z,15.99
2017-06-13T06:26:00.804Z,16
2017-06-13T06:27:00.478Z,16.07
2017-06-13T06:28:00.482Z,16.16
2017-06-13T06:29:00.809Z,16.25
2017-06-13T06:30:00.470Z,16.22
2017-06-13T06:31:00.481Z,16.26
2017-06-13T06:32:00.783Z,16.17
2017-06-13T06:33:00.460Z,16.07
2017-06-13T06:34:00.468Z,16.13
2017-06-13T06:35:00.776Z,16.13
2017-06-13T06:36:00.454Z,16.04
2017-06-13T06:37:00.766Z,16.06
2017-06-13T06:38:00.118Z,16.14
2017-06-13T06:39:00.440Z,16.17
2017-06-13T06:40:00.450Z,16.29
2017-06-13T06:41:00.791Z,16.18
2017-06-13T06:42:00.772Z,16.29
2017-06-13T06:43:00.746Z,16.33
2017-06-13T06:44:00.430Z,16.32
2017-06-13T06:45:00.778Z,16.21
2017-06-13T06:46:00.787Z,16.27
2017-06-13T06:47:00.736Z,16.39
2017-06-13T06:48:00.086Z,16.47
2017-06-13T06:49:00.401Z,16.59
2017-06-13T06:50:00.406Z,16.69
2017-06-13T06:51:00.722Z,16.88
2017-06-13T06:52:00.398Z,16.97
2017-06-13T06:53:00.408Z,16.88
2017-06-13T06:54:00.389Z,16.88
2017-06-13T06:55:00.385Z,17.05
2017-06-13T06:56:00.727Z,17.02
2017-06-13T06:57:00.382Z,16.97
2017-06-13T06:58:00.377Z,16.94
2017-06-13T06:59:00.051Z,16.85
2017-06-13T07:00:00.371Z,16.9
2017-06-13T07:01:00.695Z,16.84
2017-06-13T07:02:00.693Z,16.8
2017-06-13T07:03:00.364Z,16.92
2017-06-13T07:04:00.038Z,16.97
2017-06-13T07:05:00.682Z,16.92
2017-06-13T07:06:00.372Z,16.84
2017-06-13T07:07:00.376Z,16.82
2017-06-13T07:08:00.349Z,16.72
2017-06-13T07:09:00.352Z,16.62
2017-06-13T07:10:00.348Z,16.62
2017-06-13T07:11:00.341Z,16.59
2017-06-13T07:12:00.671Z,16.65
2017-06-13T07:13:00.345Z,16.66
2017-06-13T07:14:00.332Z,16.72
2017-06-13T07:15:00.346Z,16.8
2017-06-13T07:16:00.338Z,16.95
2017-06-13T07:17:00.642Z,17.15
2017-06-13T07:18:00.546Z,17.27
2017-06-13T07:19:00.006Z,17.4
2017-06-13T07:20:00.319Z,17.55
2017-06-13T07:21:00.637Z,17.73
2017-06-13T07:22:00.673Z,17.84
2017-06-13T07:23:00.310Z,18.08
2017-06-13T07:24:00.640Z,18.24
2017-06-13T07:25:00.625Z,18.34
2017-06-13T07:26:00.014Z,18.34
2017-06-13T07:27:00.323Z,18.23
2017-06-13T07:28:00.298Z,18.19
2017-06-13T07:29:00.294Z,18.01
2017-06-13T07:30:00.385Z,17.8
2017-06-13T07:31:00.529Z,17.76
2017-06-13T07:32:00.626Z,17.65
2017-06-13T07:33:00.285Z,17.69
2017-06-13T07:34:00.306Z,17.68
2017-06-13T07:34:59.993Z,17.73
2017-06-13T07:36:00.604Z,17.79
2017-06-13T07:37:00.277Z,17.76
2017-06-13T07:38:00.597Z,17.8
2017-06-13T07:39:00.276Z,18.03
2017-06-13T07:40:00.611Z,18.03
2017-06-13T07:41:00.590Z,18.24
2017-06-13T07:42:00.267Z,18.11
2017-06-13T07:43:00.287Z,18.01
2017-06-13T07:44:00.276Z,18.06
2017-06-13T07:45:00.598Z,18.06
2017-06-13T07:46:00.579Z,17.9
2017-06-13T07:47:00.580Z,17.98
2017-06-13T07:48:00.256Z,17.87
2017-06-13T07:49:00.252Z,17.74
2017-06-13T07:50:00.249Z,17.57
2017-06-13T07:51:00.269Z,17.45
2017-06-13T07:52:00.252Z,17.42
2017-06-13T07:53:00.565Z,17.31
2017-06-13T07:54:00.564Z,17.3
2017-06-13T07:55:00.241Z,17.2
2017-06-13T07:56:00.239Z,17.27
2017-06-13T07:57:00.570Z,17.27
2017-06-13T07:58:00.234Z,17.4
2017-06-13T07:59:00.234Z,17.47
2017-06-13T08:00:00.558Z,17.49
2017-06-13T08:01:00.559Z,17.54
2017-06-13T08:02:00.550Z,17.68
2017-06-13T08:03:00.568Z,17.87
2017-06-13T08:04:00.558Z,17.86
2017-06-13T08:05:00.244Z,17.86
2017-06-13T08:06:00.239Z,17.84
2017-06-13T08:07:00.230Z,18.01
2017-06-13T08:08:00.213Z,18.05
2017-06-13T08:08:59.903Z,18.19
2017-06-13T08:10:00.538Z,18.38
2017-06-13T08:11:00.209Z,18.5
2017-06-13T08:12:00.217Z,18.63
2017-06-13T08:13:00.530Z,18.82
2017-06-13T08:14:00.203Z,19
2017-06-13T08:15:00.543Z,19.2
2017-06-13T08:15:59.880Z,19.25
2017-06-13T08:17:00.210Z,19.3
2017-06-13T08:17:59.874Z,19.17
2017-06-13T08:18:59.871Z,18.97
2017-06-13T08:20:00.203Z,18.81
2017-06-13T08:21:00.533Z,18.72
2017-06-13T08:22:00.197Z,18.61
2017-06-13T08:22:59.879Z,18.63
2017-06-13T08:24:00.202Z,18.54
2017-06-13T08:25:00.188Z,18.53
2017-06-13T08:26:00.507Z,18.54
2017-06-13T08:27:00.528Z,18.53
2017-06-13T08:28:00.187Z,18.65
2017-06-13T08:29:00.186Z,18.65
2017-06-13T08:29:59.859Z,18.45
2017-06-13T08:31:00.198Z,18.36
2017-06-13T08:32:00.187Z,18.29
2017-06-13T08:33:00.504Z,18.21
2017-06-13T08:34:00.175Z,18.26
2017-06-13T08:35:00.495Z,18.23
2017-06-13T08:36:00.193Z,18.32
2017-06-13T08:37:00.170Z,18.23
2017-06-13T08:37:59.848Z,18.32
2017-06-13T08:39:00.168Z,18.51
2017-06-13T08:40:00.488Z,18.74
2017-06-13T08:40:59.844Z,18.94
2017-06-13T08:42:00.485Z,19.16
2017-06-13T08:43:00.186Z,19.43
2017-06-13T08:44:00.164Z,19.83
2017-06-13T08:45:00.484Z,20.05
2017-06-13T08:46:00.183Z,20.26
2017-06-13T08:47:00.479Z,20.42
2017-06-13T08:48:00.170Z,20.54
2017-06-13T08:49:00.477Z,20.63
2017-06-13T08:49:59.834Z,20.6
2017-06-13T08:51:00.497Z,20.37
2017-06-13T08:51:59.859Z,20.34
2017-06-13T08:53:00.477Z,20.04
2017-06-13T08:54:00.502Z,19.87
2017-06-13T08:55:00.474Z,19.7
2017-06-13T08:56:00.473Z,19.47
2017-06-13T08:56:59.827Z,19.2
2017-06-13T08:58:00.148Z,19.07
2017-06-13T08:59:00.477Z,18.93
2017-06-13T09:00:00.155Z,18.84
2017-06-13T09:01:00.149Z,18.68
2017-06-13T09:02:00.189Z,18.74
2017-06-13T09:03:00.150Z,18.69
2017-06-13T09:04:00.465Z,18.75
2017-06-13T09:04:59.828Z,18.84
2017-06-13T09:06:00.623Z,18.93
2017-06-13T09:07:00.635Z,19.3
2017-06-13T09:08:00.663Z,19.63
2017-06-13T09:08:59.820Z,19.8
2017-06-13T09:09:59.839Z,20.01
2017-06-13T09:11:00.462Z,19.87
2017-06-13T09:12:00.149Z,19.71
2017-06-13T09:13:00.143Z,19.68
2017-06-13T09:13:59.838Z,19.67
2017-06-13T09:15:00.460Z,19.7
2017-06-13T09:16:00.478Z,19.64
2017-06-13T09:17:00.469Z,19.6
2017-06-13T09:18:00.149Z,19.55
2017-06-13T09:19:00.154Z,19.64
2017-06-13T09:20:00.134Z,19.92
2017-06-13T09:21:00.463Z,20.04
2017-06-13T09:22:00.480Z,20.07
2017-06-13T09:23:00.457Z,20.12
2017-06-13T09:24:00.131Z,20.12
2017-06-13T09:25:00.130Z,20.12
2017-06-13T09:26:00.130Z,20.12
2017-06-13T09:27:00.132Z,20.02
2017-06-13T09:28:00.457Z,19.93
2017-06-13T09:29:00.128Z,19.64
2017-06-13T09:30:00.448Z,19.6
2017-06-13T09:31:00.131Z,19.5
2017-06-13T09:32:00.460Z,19.38
2017-06-13T09:33:00.128Z,19.23
2017-06-13T09:33:59.807Z,19.06
2017-06-13T09:35:00.448Z,18.93
2017-06-13T09:36:00.150Z,18.84
2017-06-13T09:37:00.449Z,18.75
2017-06-13T09:38:00.450Z,18.76
2017-06-13T09:39:00.127Z,18.93
2017-06-13T09:40:00.126Z,19.23
2017-06-13T09:41:00.125Z,19.46
2017-06-13T09:42:00.146Z,19.63
2017-06-13T09:43:00.445Z,19.78
2017-06-13T09:44:00.119Z,19.79
2017-06-13T09:45:00.460Z,19.85
2017-06-13T09:46:00.446Z,19.95
2017-06-13T09:47:00.138Z,20.04
2017-06-13T09:48:00.118Z,20.26
2017-06-13T09:49:00.118Z,20.15
2017-06-13T09:50:00.457Z,20.19
2017-06-13T09:50:59.796Z,20.27
2017-06-13T09:52:00.448Z,20.27
2017-06-13T09:53:00.122Z,20.26
2017-06-13T09:54:00.462Z,20.19
2017-06-13T09:54:59.812Z,20.05
2017-06-13T09:56:00.130Z,20.05
2017-06-13T09:57:00.134Z,20.1
2017-06-13T09:58:00.113Z,20.02
2017-06-13T09:59:00.440Z,19.97
2017-06-13T10:00:00.129Z,20.02
2017-06-13T10:01:00.116Z,20.02
2017-06-13T10:02:00.437Z,20.08
2017-06-13T10:03:00.440Z,20.18
2017-06-13T10:04:00.120Z,20.23
2017-06-13T10:05:00.444Z,20.49
2017-06-13T10:06:00.438Z,20.76
2017-06-13T10:06:59.794Z,20.76
2017-06-13T10:08:00.134Z,20.98
2017-06-13T10:08:59.795Z,21.08
2017-06-13T10:10:00.457Z,21.06
2017-06-13T10:11:00.114Z,21.08
2017-06-13T10:12:00.115Z,21.08
2017-06-13T10:13:00.437Z,21.13
2017-06-13T10:14:00.440Z,21.15
2017-06-13T10:14:59.795Z,21.21
2017-06-13T10:16:00.437Z,21.33
2017-06-13T10:17:00.167Z,21.41
2017-06-13T10:18:00.139Z,21.22
2017-06-13T10:19:00.437Z,21.19
2017-06-13T10:20:00.442Z,21.04
2017-06-13T10:21:00.442Z,21
2017-06-13T10:22:00.441Z,20.96
2017-06-13T10:23:00.440Z,20.71
2017-06-13T10:24:00.442Z,20.42
2017-06-13T10:24:59.805Z,20.25
2017-06-13T10:26:00.508Z,20.04
2017-06-13T10:26:59.798Z,19.89
2017-06-13T10:27:59.798Z,19.65
2017-06-13T10:29:00.132Z,19.57
2017-06-13T10:30:00.139Z,19.52
2017-06-13T10:31:00.460Z,19.56
2017-06-13T10:32:00.144Z,19.6
2017-06-13T10:33:00.118Z,19.61
2017-06-13T10:34:00.137Z,19.7
2017-06-13T10:35:00.119Z,19.7
2017-06-13T10:36:00.120Z,19.92
2017-06-13T10:37:00.137Z,20.02
2017-06-13T10:38:00.120Z,20.2
2017-06-13T10:39:00.461Z,20.29
2017-06-13T10:39:59.816Z,20.25
2017-06-13T10:41:00.129Z,20.3
2017-06-13T10:42:00.115Z,20.25
2017-06-13T10:43:00.137Z,20.16
2017-06-13T10:44:00.439Z,20.07
2017-06-13T10:45:00.131Z,20.26
2017-06-13T10:46:00.118Z,20.42
2017-06-13T10:47:00.117Z,20.67
2017-06-13T10:48:00.439Z,20.93
2017-06-13T10:49:00.116Z,21.09
2017-06-13T10:49:59.801Z,21.08
2017-06-13T10:51:00.440Z,21.09
2017-06-13T10:52:00.118Z,20.82
2017-06-13T10:52:59.791Z,20.56
2017-06-13T10:53:59.799Z,20.71
2017-06-13T10:55:00.115Z,20.86
2017-06-13T10:56:00.116Z,21.16
2017-06-13T10:57:00.134Z,21.22
2017-06-13T10:58:00.437Z,21.13
2017-06-13T10:59:00.138Z,21.15
2017-06-13T10:59:59.793Z,21.01
2017-06-13T11:01:00.437Z,20.82
2017-06-13T11:01:59.795Z,20.79
2017-06-13T11:02:59.793Z,20.71
2017-06-13T11:04:00.439Z,20.48
2017-06-13T11:05:00.122Z,20.27
2017-06-13T11:06:00.118Z,20.05
2017-06-13T11:06:59.796Z,20.04
2017-06-13T11:07:59.793Z,19.86
2017-06-13T11:09:00.116Z,19.75
2017-06-13T11:10:00.118Z,19.85
2017-06-13T11:11:00.117Z,19.95
2017-06-13T11:11:59.799Z,20.04
2017-06-13T11:12:59.797Z,20.16
2017-06-13T11:13:59.795Z,20.12
2017-06-13T11:15:00.474Z,20.05
2017-06-13T11:16:00.438Z,20.04
2017-06-13T11:17:00.465Z,20
2017-06-13T11:18:00.461Z,20.1
2017-06-13T11:19:00.113Z,20.02
2017-06-13T11:20:00.440Z,20.01
2017-06-13T11:21:00.441Z,20.02
2017-06-13T11:21:59.791Z,20.2
2017-06-13T11:23:00.440Z,20.2
2017-06-13T11:24:00.458Z,20.19
2017-06-13T11:24:59.796Z,20.15
2017-06-13T11:26:00.135Z,20.42
2017-06-13T11:27:00.116Z,20.38
2017-06-13T11:28:00.129Z,20.29
2017-06-13T11:29:00.128Z,20.26
2017-06-13T11:30:00.114Z,20.27
2017-06-13T11:31:00.124Z,20.41
2017-06-13T11:32:00.437Z,20.58
2017-06-13T11:32:59.792Z,20.74
2017-06-13T11:34:00.118Z,21.01
2017-06-13T11:35:00.445Z,21.03
2017-06-13T11:36:00.436Z,21.08
2017-06-13T11:37:00.114Z,21.08
2017-06-13T11:38:00.435Z,21.01
2017-06-13T11:38:59.795Z,21.01
2017-06-13T11:40:00.112Z,20.9
2017-06-13T11:41:00.442Z,20.78
2017-06-13T11:42:00.438Z,20.74
2017-06-13T11:42:59.818Z,20.81
2017-06-13T11:44:00.111Z,20.78
2017-06-13T11:45:00.113Z,20.83
2017-06-13T11:46:00.444Z,21.08
2017-06-13T11:47:00.442Z,21.25
2017-06-13T11:48:00.135Z,21.38
2017-06-13T11:49:00.437Z,21.48
2017-06-13T11:50:00.116Z,21.55
2017-06-13T11:51:00.455Z,21.36
2017-06-13T11:52:00.459Z,21.3
2017-06-13T11:52:59.794Z,21.22
2017-06-13T11:54:00.440Z,21.08
2017-06-13T11:55:00.117Z,21.15
2017-06-13T11:56:00.460Z,21.19
2017-06-13T11:57:00.122Z,21.19
2017-06-13T11:58:00.438Z,21.28
2017-06-13T11:59:00.447Z,21.36
2017-06-13T12:00:00.139Z,21.66
2017-06-13T12:01:00.445Z,21.83
2017-06-13T12:02:00.446Z,21.77
2017-06-13T12:02:59.796Z,21.59
2017-06-13T12:04:00.442Z,21.51
2017-06-13T12:05:00.124Z,21.56
2017-06-13T12:05:59.798Z,21.59
2017-06-13T12:07:00.444Z,21.62
2017-06-13T12:08:00.123Z,21.62
2017-06-13T12:09:00.125Z,21.7
2017-06-13T12:10:00.124Z,21.76
2017-06-13T12:11:00.473Z,21.94
2017-06-13T12:12:00.454Z,22
2017-06-13T12:13:00.446Z,21.96
2017-06-13T12:13:59.806Z,22.12
2017-06-13T12:15:00.461Z,22.26
2017-06-13T12:16:00.450Z,22.42
2017-06-13T12:17:00.127Z,22.48
2017-06-13T12:18:00.457Z,22.48
2017-06-13T12:18:59.828Z,22.36
2017-06-13T12:19:59.811Z,22.27
2017-06-13T12:21:00.135Z,22.41
2017-06-13T12:22:00.454Z,22.55
2017-06-13T12:23:00.140Z,22.59
2017-06-13T12:24:00.458Z,22.81
2017-06-13T12:25:00.475Z,22.76
2017-06-13T12:26:00.462Z,22.51
2017-06-13T12:27:00.144Z,22.34
2017-06-13T12:28:00.155Z,22.14
2017-06-13T12:29:00.160Z,22.04
2017-06-13T12:30:00.467Z,21.99
2017-06-13T12:31:00.465Z,21.7
2017-06-13T12:32:00.149Z,21.56
2017-06-13T12:33:00.148Z,21.45
2017-06-13T12:34:00.475Z,21.46
2017-06-13T12:35:00.479Z,21.58
2017-06-13T12:36:00.154Z,21.68
2017-06-13T12:37:00.474Z,21.7
2017-06-13T12:38:00.151Z,21.7
2017-06-13T12:39:00.178Z,21.59
2017-06-13T12:40:00.475Z,21.48
2017-06-13T12:41:00.495Z,21.43
2017-06-13T12:42:00.494Z,21.41
2017-06-13T12:43:00.483Z,21.34
2017-06-13T12:44:00.483Z,21.38
2017-06-13T12:44:59.857Z,21.13
2017-06-13T12:46:00.161Z,21.08
2017-06-13T12:46:59.844Z,20.98
2017-06-13T12:47:59.841Z,21
2017-06-13T12:49:00.176Z,21.08
2017-06-13T12:49:59.841Z,21.04
2017-06-13T12:51:00.165Z,21
2017-06-13T12:52:00.558Z,20.96
2017-06-13T12:53:00.172Z,21.15
2017-06-13T12:54:00.491Z,21.22
2017-06-13T12:55:00.495Z,21.23
2017-06-13T12:55:59.858Z,21.36